Wilbur by the Sea, Florida
Current Conditions -  °F | °C
As of 11:50 AM on Thursday 27 Nov 2014 (Local Time) from KEVB Reporting Station
Clear Clear  
Wind Chill: 66°   Ceiling: Unl
Heat Index: 66°   Visibility: 10mi
Dew Point: 48°   Wind: 15mph
Humidity: 52%   Direction: 300°WNW
Pressure: 30.23"   Gusts: 23mph
Location:  29.1091°N, 80.9979°W
Report Text: KEVB 271650Z 30013G20KT 10SM SKC 19/09 A3023
Loading
Personal Weather Stations






























Interactive Weather Map New forecast layout! Learn more

10-Day Weather Forecast

Advertisements
Track Severe Weather on mobile